Time;durP1;ratioP1;P1;durP2;ratioP2;P2;SDS_P1;SDS_P2;PMS_P1;PMS_P2;Temp;Humidity;BMP_temperature;BMP_pressure;BME280_temperature;BME280_humidity;BME280_pressure;Samples;Min_cycle;Max_cycle;Signal;HPM_P1;HPM_P2
2023/03/21 00:00:42;;;;;;;48.72;27.90;;;8.00;99.90;;;;;;5051346;28;20364;-45
2023/03/21 00:03:07;;;;;;;47.30;28.48;;;7.90;99.90;;;;;;5051445;28;20047;-47
2023/03/21 00:05:33;;;;;;;43.45;26.25;;;8.00;99.90;;;;;;5050682;28;20091;-46
2023/03/21 00:07:59;;;;;;;46.33;26.55;;;8.00;99.90;;;;;;5051036;28;20025;-45
2023/03/21 00:10:24;;;;;;;47.67;27.88;;;8.00;99.90;;;;;;5049728;28;20028;-45
2023/03/21 00:12:57;;;;;;;41.78;25.73;;;8.00;99.90;;;;;;5051132;28;20545;-45
2023/03/21 00:15:26;;;;;;;40.58;26.85;;;8.00;99.90;;;;;;5050401;28;20538;-45
2023/03/21 00:18:10;;;;;;;49.53;27.13;;;8.00;99.90;;;;;;5051101;28;20242;-45
2023/03/21 00:20:36;;;;;;;43.60;27.77;;;8.00;99.90;;;;;;5050999;28;20618;-45
2023/03/21 00:23:03;;;;;;;46.45;27.65;;;8.00;99.90;;;;;;5050492;28;20556;-45
2023/03/21 00:25:30;;;;;;;47.00;26.63;;;7.90;99.90;;;;;;5049980;28;20382;-47
2023/03/21 00:27:56;;;;;;;47.42;29.33;;;7.90;99.90;;;;;;5050811;28;20421;-45
2023/03/21 00:30:23;;;;;;;42.10;26.90;;;7.90;99.90;;;;;;5050283;28;20036;-45
2023/03/21 00:32:49;;;;;;;51.35;27.63;;;7.90;99.90;;;;;;5050426;28;20020;-45
2023/03/21 00:35:14;;;;;;;52.08;31.00;;;7.90;99.90;;;;;;5050070;28;20100;-48
2023/03/21 00:37:40;;;;;;;47.83;28.75;;;7.80;99.90;;;;;;5050669;28;20100;-45
2023/03/21 00:40:09;;;;;;;45.35;29.15;;;7.80;99.90;;;;;;5045238;28;20359;-46
2023/03/21 00:42:35;;;;;;;52.00;32.53;;;7.90;99.90;;;;;;5050834;28;20025;-46
2023/03/21 00:45:03;;;;;;;44.38;28.27;;;7.90;99.90;;;;;;5049929;28;20090;-45
2023/03/21 00:47:29;;;;;;;45.55;28.73;;;7.90;99.90;;;;;;5050172;28;20055;-45
2023/03/21 00:49:54;;;;;;;53.38;30.15;;;7.80;99.90;;;;;;5050337;28;20533;-45
2023/03/21 00:52:20;;;;;;;48.03;28.45;;;7.80;99.90;;;;;;5048950;28;20054;-45
2023/03/21 00:54:46;;;;;;;50.22;30.95;;;7.80;99.90;;;;;;5049860;28;20256;-44
2023/03/21 00:57:11;;;;;;;49.67;30.33;;;7.80;99.90;;;;;;5049805;28;20037;-44
2023/03/21 00:59:37;;;;;;;48.03;30.23;;;7.70;99.90;;;;;;5050219;28;20348;-45
2023/03/21 01:02:06;;;;;;;51.60;30.95;;;7.70;99.90;;;;;;5049090;28;20036;-44
2023/03/21 01:04:33;;;;;;;57.72;32.28;;;7.70;99.90;;;;;;5058214;28;20029;-44
2023/03/21 01:06:59;;;;;;;59.70;32.25;;;7.70;99.90;;;;;;5049588;28;20538;-44
2023/03/21 01:09:25;;;;;;;54.38;32.95;;;7.70;99.90;;;;;;5049996;28;20127;-44
2023/03/21 01:11:51;;;;;;;57.03;32.33;;;7.70;99.90;;;;;;5049937;28;20106;-45
2023/03/21 01:14:18;;;;;;;58.60;33.17;;;7.70;99.90;;;;;;5049477;28;20515;-44
2023/03/21 01:16:44;;;;;;;55.55;32.53;;;7.70;99.90;;;;;;5049338;28;20151;-44
2023/03/21 01:19:15;;;;;;;56.97;33.33;;;7.60;99.90;;;;;;5049697;28;20480;-44
2023/03/21 01:21:42;;;;;;;58.47;32.05;;;7.70;99.90;;;;;;5050007;28;20109;-45
2023/03/21 01:24:08;;;;;;;54.22;31.48;;;7.60;99.90;;;;;;5049263;28;20033;-44
2023/03/21 01:26:36;;;;;;;52.65;31.17;;;7.60;99.90;;;;;;5048937;28;20104;-44
2023/03/21 01:29:02;;;;;;;56.47;32.20;;;7.60;99.90;;;;;;5048482;28;20025;-46
2023/03/21 01:31:28;;;;;;;65.85;34.00;;;7.60;99.90;;;;;;5049781;28;20027;-46
2023/03/21 01:33:53;;;;;;;62.05;35.42;;;7.60;99.90;;;;;;5048373;28;20021;-45
2023/03/21 01:36:23;;;;;;;56.97;35.35;;;7.60;99.90;;;;;;5048863;28;20044;-45
2023/03/21 01:38:49;;;;;;;57.80;33.85;;;7.60;99.90;;;;;;5047566;28;20398;-45
2023/03/21 01:41:25;;;;;;;57.05;32.85;;;7.70;99.90;;;;;;5049351;28;20072;-45
2023/03/21 01:43:51;;;;;;;57.15;33.72;;;7.70;99.90;;;;;;5047833;28;20021;-46
2023/03/21 01:46:34;;;;;;;50.30;31.65;;;7.70;99.90;;;;;;5048562;28;20028;-44
2023/03/21 01:49:05;;;;;;;66.53;36.20;;;7.70;99.90;;;;;;5048117;28;20020;-45
2023/03/21 01:51:34;;;;;;;55.17;32.80;;;7.70;99.90;;;;;;5049149;28;20729;-47
2023/03/21 01:54:00;;;;;;;56.08;32.75;;;7.70;99.90;;;;;;5049198;28;20097;-44
2023/03/21 01:56:33;;;;;;;59.30;35.00;;;7.70;99.90;;;;;;5048167;28;20108;-46
2023/03/21 01:59:11;;;;;;;60.75;33.72;;;7.70;99.90;;;;;;5048763;28;20047;-45
2023/03/21 02:01:41;;;;;;;58.30;34.30;;;7.70;99.90;;;;;;5040920;28;20074;-45
2023/03/21 02:04:07;;;;;;;52.67;31.67;;;7.80;99.90;;;;;;5049104;28;20510;-44
2023/03/21 02:06:40;;;;;;;61.92;33.83;;;7.70;99.90;;;;;;5048246;28;20094;-45
2023/03/21 02:09:10;;;;;;;52.05;32.58;;;7.70;99.90;;;;;;5048802;28;20025;-44
2023/03/21 02:11:37;;;;;;;55.72;32.13;;;7.70;99.90;;;;;;5048358;28;20048;-45
2023/03/21 02:14:03;;;;;;;51.65;32.38;;;7.70;99.90;;;;;;5048591;28;20028;-44
2023/03/21 02:16:36;;;;;;;55.65;32.83;;;7.80;99.90;;;;;;5048293;28;20058;-45
2023/03/21 02:19:20;;;;;;;56.50;33.08;;;7.70;99.90;;;;;;5048802;28;20027;-45
2023/03/21 02:22:03;;;;;;;54.97;31.42;;;7.70;99.90;;;;;;5047617;28;20165;-44
2023/03/21 02:24:35;;;;;;;55.15;32.80;;;7.80;99.90;;;;;;5048179;28;20031;-45
2023/03/21 02:27:10;;;;;;;51.97;32.15;;;7.90;99.90;;;;;;5048489;28;20121;-44
2023/03/21 02:30:24;;;;;;;51.80;30.20;;;7.80;99.90;;;;;;5048481;28;20025;-45
2023/03/21 02:32:57;;;;;;;50.33;30.27;;;7.80;99.90;;;;;;5034026;28;20094;-44
2023/03/21 02:35:52;;;;;;;50.00;30.65;;;7.80;99.90;;;;;;5048452;28;20021;-45
2023/03/21 02:38:30;;;;;;;48.70;30.02;;;7.80;99.90;;;;;;5048793;28;20025;-44
2023/03/21 02:40:55;;;;;;;52.67;32.58;;;7.80;99.90;;;;;;5048589;28;20335;-45
2023/03/21 02:43:45;;;;;;;54.95;31.52;;;7.80;99.90;;;;;;5048693;28;20099;-44
2023/03/21 02:46:27;;;;;;;52.05;32.13;;;7.80;99.90;;;;;;5047959;28;20648;-44
2023/03/21 02:49:08;;;;;;;52.53;31.13;;;7.80;99.90;;;;;;5048279;28;20620;-45
2023/03/21 02:51:36;;;;;;;49.38;30.40;;;7.90;99.90;;;;;;5046972;28;20032;-44
2023/03/21 02:54:08;;;;;;;48.65;30.23;;;7.90;99.90;;;;;;5047933;28;20021;-45
2023/03/21 02:56:35;;;;;;;46.42;29.15;;;7.90;99.90;;;;;;5047085;28;20084;-44
2023/03/21 02:59:03;;;;;;;45.63;27.63;;;7.90;99.90;;;;;;5048290;28;20447;-44
2023/03/21 03:01:28;;;;;;;49.50;30.05;;;7.90;99.90;;;;;;5048172;28;20029;-44
2023/03/21 03:03:54;;;;;;;51.60;29.05;;;7.90;99.90;;;;;;5048450;28;20021;-46
2023/03/21 03:06:32;;;;;;;54.17;30.70;;;7.80;99.90;;;;;;5048250;28;20373;-45
2023/03/21 03:09:15;;;;;;;42.17;27.83;;;7.80;99.90;;;;;;5047900;28;20021;-45
2023/03/21 03:11:43;;;;;;;50.88;29.27;;;7.90;99.90;;;;;;5048028;28;20549;-45
2023/03/21 03:14:39;;;;;;;46.15;27.35;;;7.90;99.90;;;;;;5048506;28;20078;-46
2023/03/21 03:17:22;;;;;;;51.85;27.70;;;7.90;99.90;;;;;;5047822;28;20072;-44
2023/03/21 03:20:25;;;;;;;55.63;31.23;;;7.90;99.90;;;;;;5046858;28;20501;-45
2023/03/21 03:23:18;;;;;;;49.63;29.08;;;7.90;99.90;;;;;;5045187;28;20054;-44
2023/03/21 03:25:59;;;;;;;45.42;29.38;;;7.90;99.90;;;;;;5065530;28;20561;-46
2023/03/21 03:28:31;;;;;;;53.00;29.30;;;7.90;99.90;;;;;;5051848;28;20158;-44
2023/03/21 03:30:59;;;;;;;48.30;30.08;;;7.90;99.90;;;;;;5051802;28;20021;-45
2023/03/21 03:33:26;;;;;;;47.40;29.10;;;7.90;99.90;;;;;;5051764;28;20363;-45
2023/03/21 03:35:55;;;;;;;49.08;29.60;;;7.90;99.90;;;;;;5051197;28;20036;-45
2023/03/21 03:38:24;;;;;;;53.78;32.22;;;7.90;99.90;;;;;;5051537;28;20409;-44
2023/03/21 03:40:57;;;;;;;50.05;31.00;;;7.80;99.90;;;;;;5050418;28;20017;-44
2023/03/21 03:43:31;;;;;;;53.42;31.98;;;7.90;99.90;;;;;;5051770;28;20509;-44
2023/03/21 03:46:03;;;;;;;55.25;30.27;;;7.90;99.90;;;;;;5051053;28;20039;-45
2023/03/21 03:48:45;;;;;;;56.70;30.65;;;7.90;99.90;;;;;;5051402;28;20124;-44
2023/03/21 03:51:24;;;;;;;49.03;29.63;;;7.90;99.90;;;;;;5051536;28;20029;-45
2023/03/21 03:53:55;;;;;;;52.22;30.20;;;7.90;99.90;;;;;;5051226;28;20501;-44
2023/03/21 03:56:22;;;;;;;52.10;30.05;;;7.90;99.90;;;;;;5050986;28;20213;-45
2023/03/21 03:58:48;;;;;;;59.53;31.13;;;7.90;99.90;;;;;;5051244;28;20055;-45
2023/03/21 04:01:13;;;;;;;51.72;30.38;;;7.90;99.90;;;;;;5051446;28;20087;-43
2023/03/21 04:03:41;;;;;;;50.38;30.13;;;7.90;99.90;;;;;;5051551;28;20067;-45
2023/03/21 04:06:07;;;;;;;55.58;29.58;;;7.90;99.90;;;;;;5050709;28;20025;-44
2023/03/21 04:08:33;;;;;;;58.55;32.47;;;8.00;99.90;;;;;;5050718;28;20028;-45
2023/03/21 04:11:01;;;;;;;57.97;29.25;;;7.90;99.90;;;;;;5051088;28;20025;-44
2023/03/21 04:13:27;;;;;;;51.38;29.85;;;7.90;99.90;;;;;;5050676;28;20025;-44
2023/03/21 04:15:52;;;;;;;51.38;29.27;;;7.90;99.90;;;;;;5050404;28;20048;-45
2023/03/21 04:18:18;;;;;;;60.15;30.20;;;8.00;99.90;;;;;;5049244;28;20021;-44
2023/03/21 04:20:43;;;;;;;56.00;28.65;;;7.90;99.90;;;;;;5049534;28;20056;-44
2023/03/21 04:23:10;;;;;;;54.78;29.25;;;7.90;99.90;;;;;;5049513;28;20028;-47
2023/03/21 04:25:36;;;;;;;56.45;29.20;;;8.00;99.90;;;;;;5049933;28;20028;-47
2023/03/21 04:28:02;;;;;;;44.05;26.45;;;8.00;99.90;;;;;;5049357;28;20036;-45
2023/03/21 04:30:27;;;;;;;55.85;29.67;;;8.00;99.90;;;;;;5050820;28;20021;-45
2023/03/21 04:32:55;;;;;;;46.78;26.73;;;8.00;99.90;;;;;;5050616;28;20109;-45
2023/03/21 04:35:22;;;;;;;49.88;28.88;;;8.00;99.90;;;;;;5049771;28;20240;-44
2023/03/21 04:37:48;;;;;;;49.92;27.63;;;8.10;99.90;;;;;;5050562;28;20083;-45
2023/03/21 04:40:16;;;;;;;48.75;28.65;;;8.10;99.90;;;;;;5065341;28;20021;-44
2023/03/21 04:42:42;;;;;;;53.35;27.48;;;8.10;99.90;;;;;;5050114;28;20395;-45
2023/03/21 04:45:09;;;;;;;41.63;25.90;;;8.10;99.90;;;;;;5049782;28;20511;-45
2023/03/21 04:47:35;;;;;;;43.75;26.33;;;8.10;99.90;;;;;;5050183;28;20044;-45
2023/03/21 04:50:01;;;;;;;50.28;24.38;;;8.10;99.90;;;;;;5050488;28;20028;-45
2023/03/21 04:52:26;;;;;;;45.40;25.77;;;8.10;99.90;;;;;;5050183;28;20508;-45
2023/03/21 04:54:52;;;;;;;53.42;26.38;;;8.20;99.90;;;;;;5050083;28;20386;-45
2023/03/21 04:57:18;;;;;;;41.35;25.45;;;8.10;99.90;;;;;;5048919;28;20021;-45
2023/03/21 04:59:43;;;;;;;46.83;24.75;;;8.10;99.90;;;;;;5049999;28;20029;-44
2023/03/21 05:02:09;;;;;;;49.42;25.75;;;8.10;99.90;;;;;;5049951;28;20047;-43
2023/03/21 05:04:35;;;;;;;48.75;26.27;;;8.10;99.90;;;;;;5049822;28;20017;-44
2023/03/21 05:07:00;;;;;;;44.80;25.80;;;8.20;99.90;;;;;;5050169;28;20033;-43
2023/03/21 05:09:26;;;;;;;43.47;25.05;;;8.20;99.90;;;;;;5049751;28;20029;-45
2023/03/21 05:11:52;;;;;;;44.42;25.67;;;8.20;99.90;;;;;;5049874;28;20032;-46
2023/03/21 05:14:21;;;;;;;41.08;25.05;;;8.10;99.90;;;;;;5049885;28;20025;-43
2023/03/21 05:16:52;;;;;;;50.55;25.60;;;8.10;99.90;;;;;;5049528;28;20023;-45
2023/03/21 05:19:22;;;;;;;48.47;26.20;;;8.20;99.90;;;;;;5049795;28;20021;-43
2023/03/21 05:21:48;;;;;;;;;;;8.10;99.90;;;;;;5050362;28;20512;-43
2023/03/21 05:24:20;;;;;;;43.70;22.65;;;8.10;99.90;;;;;;5049517;28;19905;-45
2023/03/21 05:26:49;;;;;;;48.67;25.48;;;8.20;99.90;;;;;;5049146;28;20028;-44
2023/03/21 05:29:16;;;;;;;45.35;24.45;;;8.20;99.90;;;;;;5049670;28;20482;-44
2023/03/21 05:31:43;;;;;;;53.83;25.67;;;8.20;99.90;;;;;;5049870;28;20090;-45
2023/03/21 05:34:08;;;;;;;42.42;23.88;;;8.10;99.90;;;;;;5049413;28;20017;-45
2023/03/21 05:36:34;;;;;;;47.10;25.65;;;8.10;99.90;;;;;;5048895;28;20025;-45
2023/03/21 05:39:00;;;;;;;41.38;24.52;;;8.10;99.90;;;;;;5048031;28;20024;-44
2023/03/21 05:41:26;;;;;;;47.33;26.27;;;8.10;99.90;;;;;;5049103;28;20029;-45
2023/03/21 05:43:52;;;;;;;46.72;24.77;;;8.10;99.90;;;;;;5049218;28;20104;-44
2023/03/21 05:46:17;;;;;;;48.70;25.75;;;8.10;99.90;;;;;;5048582;28;20082;-44
2023/03/21 05:48:43;;;;;;;41.42;24.75;;;8.20;99.90;;;;;;5048490;28;20104;-45
2023/03/21 05:51:08;;;;;;;46.00;24.50;;;8.20;99.90;;;;;;5049152;28;20029;-46
2023/03/21 05:53:34;;;;;;;39.88;22.40;;;8.30;99.90;;;;;;5048762;28;20112;-46
2023/03/21 05:55:59;;;;;;;39.50;22.83;;;8.30;99.90;;;;;;5048195;28;20017;-44
2023/03/21 05:58:25;;;;;;;43.55;23.00;;;8.30;99.90;;;;;;5048882;28;20055;-44
2023/03/21 06:00:50;;;;;;;39.15;22.73;;;8.30;99.90;;;;;;5049047;28;20254;-44
2023/03/21 06:03:16;;;;;;;37.80;23.45;;;8.30;99.90;;;;;;5049028;28;20025;-45
2023/03/21 06:05:42;;;;;;;43.65;23.83;;;8.30;99.90;;;;;;5047001;28;20394;-45
2023/03/21 06:08:07;;;;;;;43.58;24.98;;;8.20;99.90;;;;;;5048774;28;20387;-44
2023/03/21 06:10:33;;;;;;;37.28;22.83;;;8.20;99.90;;;;;;5048393;28;20021;-44
2023/03/21 06:12:58;;;;;;;40.78;22.88;;;8.30;99.90;;;;;;5048872;28;20029;-44
2023/03/21 06:15:25;;;;;;;47.50;25.17;;;8.30;99.90;;;;;;5048326;28;20025;-45
2023/03/21 06:17:51;;;;;;;45.60;23.48;;;8.30;99.90;;;;;;5044175;28;20133;-44
2023/03/21 06:20:16;;;;;;;47.08;24.50;;;8.40;99.90;;;;;;5043840;28;20052;-42
2023/03/21 06:22:42;;;;;;;39.10;22.58;;;8.30;99.90;;;;;;5046217;28;20025;-42
2023/03/21 06:25:08;;;;;;;44.67;24.27;;;8.30;99.90;;;;;;5039128;28;20029;-42
2023/03/21 06:27:34;;;;;;;41.70;24.02;;;8.40;99.90;;;;;;5043303;28;20348;-42
2023/03/21 06:30:00;;;;;;;42.70;22.77;;;8.40;99.90;;;;;;5045811;28;20064;-41
2023/03/21 06:32:26;;;;;;;46.08;24.45;;;8.40;99.90;;;;;;5047084;28;20056;-41
2023/03/21 06:34:52;;;;;;;45.55;25.00;;;8.40;99.90;;;;;;5046047;28;20021;-41
2023/03/21 06:37:18;;;;;;;38.38;22.15;;;8.40;99.90;;;;;;5045872;28;20029;-40
2023/03/21 06:39:44;;;;;;;37.67;23.05;;;8.40;99.90;;;;;;5046029;28;20017;-44
2023/03/21 06:42:10;;;;;;;40.67;22.70;;;8.50;99.90;;;;;;5042489;28;20037;-46
2023/03/21 06:44:35;;;;;;;35.30;21.98;;;8.50;99.90;;;;;;5043220;28;20017;-47
2023/03/21 06:47:01;;;;;;;48.03;24.35;;;8.50;99.90;;;;;;5045544;28;20043;-42
2023/03/21 06:49:26;;;;;;;40.60;23.67;;;8.60;99.90;;;;;;5048264;28;20032;-41
2023/03/21 06:51:52;;;;;;;38.55;23.20;;;8.60;99.90;;;;;;5046704;28;20021;-41
2023/03/21 06:54:18;;;;;;;45.10;24.13;;;8.60;99.90;;;;;;5048194;28;20082;-41
2023/03/21 06:56:44;;;;;;;38.38;21.98;;;8.60;99.90;;;;;;5048036;28;20396;-42
2023/03/21 06:59:10;;;;;;;51.17;24.98;;;8.70;99.90;;;;;;5044190;28;20417;-41
2023/03/21 07:01:35;;;;;;;42.88;22.90;;;8.70;99.90;;;;;;5051733;28;20029;-41
2023/03/21 07:04:01;;;;;;;34.90;21.27;;;8.80;99.90;;;;;;5051801;28;20033;-41
2023/03/21 07:06:27;;;;;;;36.38;21.55;;;8.90;99.90;;;;;;5051623;28;20021;-42
2023/03/21 07:08:54;;;;;;;41.97;21.40;;;8.90;99.90;;;;;;5052418;28;20643;-41
2023/03/21 07:11:21;;;;;;;50.00;22.25;;;9.00;99.90;;;;;;5052031;28;20025;-46
2023/03/21 07:13:47;;;;;;;37.10;21.65;;;8.90;99.90;;;;;;5052555;28;20029;-45
2023/03/21 07:16:14;;;;;;;44.25;19.90;;;9.00;99.90;;;;;;5051651;28;20146;-46
2023/03/21 07:18:40;;;;;;;36.05;18.88;;;9.10;99.90;;;;;;5050366;28;20497;-47
2023/03/21 07:21:06;;;;;;;34.80;19.70;;;9.10;99.90;;;;;;5052103;28;20029;-46
2023/03/21 07:23:33;;;;;;;32.08;18.75;;;9.10;99.90;;;;;;5052038;28;20036;-45
2023/03/21 07:25:59;;;;;;;32.35;18.92;;;9.20;99.90;;;;;;5050631;28;20013;-46
2023/03/21 07:28:26;;;;;;;34.42;17.65;;;9.10;99.90;;;;;;5042976;28;20036;-46
2023/03/21 07:30:54;;;;;;;36.88;18.13;;;9.10;99.90;;;;;;5046874;28;20577;-46
2023/03/21 07:33:21;;;;;;;27.92;17.05;;;9.10;99.90;;;;;;5050322;28;20116;-47
2023/03/21 07:35:48;;;;;;;36.90;17.75;;;9.20;99.90;;;;;;5049868;28;20036;-47
2023/03/21 07:38:15;;;;;;;33.53;17.83;;;9.20;99.90;;;;;;5073197;28;20025;-47
2023/03/21 07:40:41;;;;;;;32.33;17.80;;;9.20;99.90;;;;;;5068717;28;20035;-48
2023/03/21 07:43:07;;;;;;;34.15;17.50;;;9.20;99.90;;;;;;5050446;28;20359;-45
2023/03/21 07:45:32;;;;;;;31.70;17.02;;;9.20;99.90;;;;;;5049469;28;20033;-46
2023/03/21 07:48:00;;;;;;;28.25;18.83;;;9.30;99.90;;;;;;5049505;28;20510;-42
2023/03/21 07:50:26;;;;;;;31.33;17.92;;;9.30;99.90;;;;;;5049579;28;20327;-42
2023/03/21 07:52:51;;;;;;;29.42;17.00;;;9.40;99.90;;;;;;5049639;28;20033;-45
2023/03/21 07:55:17;;;;;;;26.90;16.30;;;9.40;99.90;;;;;;5047073;28;20025;-45
2023/03/21 07:57:43;;;;;;;29.75;16.20;;;9.50;99.90;;;;;;5049240;28;20060;-48
2023/03/21 08:00:09;;;;;;;29.45;16.15;;;9.60;99.90;;;;;;5055092;28;20021;-42
2023/03/21 08:02:35;;;;;;;40.72;16.67;;;9.60;99.90;;;;;;5053057;28;20040;-42
2023/03/21 08:05:01;;;;;;;29.23;17.05;;;9.60;99.90;;;;;;5050336;28;20060;-42
2023/03/21 08:07:28;;;;;;;25.63;15.10;;;9.70;99.90;;;;;;5050798;28;20427;-42
2023/03/21 08:09:53;;;;;;;34.03;16.67;;;9.80;99.90;;;;;;5049545;28;20021;-42
2023/03/21 08:12:19;;;;;;;26.80;15.73;;;9.90;99.90;;;;;;5049916;28;20056;-42
2023/03/21 08:14:45;;;;;;;28.70;15.75;;;10.10;99.90;;;;;;5047300;28;20116;-42
2023/03/21 08:17:10;;;;;;;31.30;16.60;;;10.10;99.90;;;;;;5045136;28;20036;-43
2023/03/21 08:19:36;;;;;;;31.45;15.23;;;10.00;99.90;;;;;;5050411;28;20025;-41
2023/03/21 08:22:04;;;;;;;27.90;15.57;;;10.00;99.90;;;;;;5050019;28;20024;-42
2023/03/21 08:24:30;;;;;;;22.88;14.55;;;10.20;99.90;;;;;;5049880;28;20032;-42
2023/03/21 08:26:56;;;;;;;25.83;14.73;;;10.20;99.90;;;;;;5050280;28;20028;-41
2023/03/21 08:29:23;;;;;;;32.80;15.70;;;10.20;99.90;;;;;;5050522;28;20029;-41
2023/03/21 08:31:49;;;;;;;27.13;14.27;;;10.30;99.90;;;;;;5049306;28;20028;-45
2023/03/21 08:34:16;;;;;;;25.95;14.18;;;10.30;99.90;;;;;;5050723;28;20036;-43
2023/03/21 08:36:42;;;;;;;21.77;14.00;;;10.40;99.90;;;;;;5048615;28;20025;-45
2023/03/21 08:39:08;;;;;;;25.30;14.90;;;10.60;99.90;;;;;;5049224;28;20025;-45
2023/03/21 08:41:35;;;;;;;26.27;14.93;;;10.60;99.90;;;;;;5048346;28;20445;-47
2023/03/21 08:44:02;;;;;;;26.67;14.90;;;10.50;99.90;;;;;;5049032;28;20049;-45
2023/03/21 08:46:29;;;;;;;29.92;16.17;;;10.50;99.90;;;;;;5049931;28;20017;-47
2023/03/21 08:48:54;;;;;;;30.17;14.63;;;10.50;99.90;;;;;;5049316;28;20031;-48
2023/03/21 08:51:20;;;;;;;26.63;15.13;;;10.50;99.90;;;;;;5050295;28;20483;-45
2023/03/21 08:53:48;;;;;;;23.52;14.02;;;10.50;99.90;;;;;;5050461;28;20025;-47
2023/03/21 08:56:13;;;;;;;34.15;15.60;;;10.40;99.90;;;;;;5049419;28;20029;-45
2023/03/21 08:58:39;;;;;;;25.10;14.25;;;10.40;99.90;;;;;;5049816;28;20043;-45
2023/03/21 09:01:10;;;;;;;29.60;15.32;;;10.50;99.90;;;;;;5050015;28;20017;-46
2023/03/21 09:03:38;;;;;;;;;;;10.70;99.90;;;;;;5050577;28;20056;-45
2023/03/21 09:06:04;;;;;;;21.63;12.98;;;10.70;99.90;;;;;;5049604;28;19978;-46
2023/03/21 09:08:29;;;;;;;25.00;13.48;;;10.80;99.90;;;;;;5050072;28;20458;-45
2023/03/21 09:10:55;;;;;;;28.25;13.93;;;11.00;99.90;;;;;;5049879;28;20013;-46
2023/03/21 09:13:22;;;;;;;27.17;14.00;;;10.90;99.90;;;;;;5049996;28;20230;-45
2023/03/21 09:15:48;;;;;;;31.90;13.63;;;11.00;99.90;;;;;;5049008;28;20021;-47
2023/03/21 09:18:15;;;;;;;27.33;13.65;;;11.00;99.90;;;;;;5049629;28;20027;-46
2023/03/21 09:20:44;;;;;;;27.80;13.40;;;11.20;99.90;;;;;;5049574;28;20544;-45
2023/03/21 09:23:11;;;;;;;25.88;13.18;;;11.30;99.90;;;;;;5048661;28;20029;-45
2023/03/21 09:25:37;;;;;;;23.80;12.75;;;11.40;99.90;;;;;;5049157;28;20035;-45
2023/03/21 09:28:04;;;;;;;27.42;12.75;;;11.50;99.90;;;;;;5049559;28;20021;-46
2023/03/21 09:30:31;;;;;;;28.88;13.93;;;11.60;99.90;;;;;;5049749;28;20068;-46
2023/03/21 09:32:59;;;;;;;28.45;14.05;;;11.60;99.90;;;;;;5049389;28;20497;-45
2023/03/21 09:35:26;;;;;;;26.48;13.60;;;11.50;99.90;;;;;;5049267;28;20024;-41
2023/03/21 09:37:52;;;;;;;21.65;13.93;;;11.40;99.90;;;;;;5049528;28;20051;-41
2023/03/21 09:40:57;;;;;;;23.50;13.23;;;11.60;99.90;;;;;;5049244;28;20021;-43
2023/03/21 09:43:37;;;;;;;32.28;13.57;;;11.70;99.90;;;;;;5048390;28;20036;-42
2023/03/21 09:46:02;;;;;;;23.17;13.07;;;11.80;99.90;;;;;;5049272;28;20127;-42
2023/03/21 09:48:46;;;;;;;25.42;13.80;;;11.90;99.90;;;;;;5049069;28;20300;-43
2023/03/21 09:51:16;;;;;;;25.60;13.07;;;12.00;99.90;;;;;;5049249;28;20032;-42
2023/03/21 09:53:45;;;;;;;25.73;12.33;;;12.00;99.90;;;;;;5048684;28;20029;-42
2023/03/21 09:56:12;;;;;;;23.95;12.20;;;12.00;99.90;;;;;;5048243;28;20028;-41
2023/03/21 09:58:45;;;;;;;25.70;11.50;;;12.10;99.90;;;;;;5048851;28;20041;-45
2023/03/21 10:01:27;;;;;;;25.63;12.18;;;12.10;99.90;;;;;;5048826;28;20025;-47
2023/03/21 10:03:54;;;;;;;21.60;11.32;;;12.20;99.90;;;;;;5048197;28;20029;-46
2023/03/21 10:06:29;;;;;;;26.58;12.82;;;12.20;99.90;;;;;;5048545;28;20025;-46
2023/03/21 10:09:31;;;;;;;28.83;12.35;;;12.20;99.90;;;;;;5049133;28;20111;-45
2023/03/21 10:12:05;;;;;;;17.52;10.15;;;12.30;99.90;;;;;;5025739;28;20017;-47
2023/03/21 10:14:35;;;;;;;22.25;11.75;;;12.40;99.90;;;;;;5045573;28;20120;-45
2023/03/21 10:17:25;;;;;;;19.42;10.93;;;12.50;99.90;;;;;;5048342;28;20057;-47
2023/03/21 10:20:12;;;;;;;21.80;12.15;;;12.70;99.90;;;;;;5048611;28;20028;-46
2023/03/21 10:22:37;;;;;;;21.50;12.32;;;12.70;99.90;;;;;;5048746;28;20037;-42
2023/03/21 10:25:05;;;;;;;23.33;12.93;;;12.90;99.90;;;;;;5047849;28;20090;-48
2023/03/21 10:27:33;;;;;;;22.65;11.77;;;13.10;99.90;;;;;;5048387;28;20494;-41
2023/03/21 10:29:59;;;;;;;25.67;11.02;;;13.30;99.90;;;;;;5047135;28;20037;-46
2023/03/21 10:32:25;;;;;;;26.33;11.23;;;13.50;99.90;;;;;;5048762;28;20100;-42
2023/03/21 10:34:55;;;;;;;18.63;10.57;;;13.40;99.90;;;;;;5048476;28;20050;-41
2023/03/21 10:37:22;;;;;;;23.17;11.43;;;13.40;99.90;;;;;;5046971;28;20052;-41
2023/03/21 10:39:50;;;;;;;21.67;10.63;;;13.40;99.90;;;;;;5049816;28;20024;-41
2023/03/21 10:42:23;;;;;;;21.05;10.85;;;13.30;99.90;;;;;;5053235;28;20075;-42
2023/03/21 10:44:51;;;;;;;22.08;11.05;;;13.30;99.90;;;;;;5048143;28;20025;-40
2023/03/21 10:47:39;;;;;;;25.05;11.18;;;13.10;99.90;;;;;;5061356;28;20029;-40
2023/03/21 10:50:08;;;;;;;24.10;10.30;;;12.60;99.90;;;;;;5040293;28;20037;-40
2023/03/21 10:52:36;;;;;;;19.40;10.55;;;12.50;99.90;;;;;;5048322;28;20121;-41
2023/03/21 10:55:27;;;;;;;24.02;11.00;;;12.50;99.90;;;;;;5055847;28;20028;-39
2023/03/21 10:57:58;;;;;;;20.38;11.90;;;12.70;99.90;;;;;;5048339;28;20032;-41
2023/03/21 11:00:27;;;;;;;21.42;12.73;;;12.70;99.90;;;;;;5048444;28;20128;-41
2023/03/21 11:02:54;;;;;;;26.02;11.90;;;12.60;99.90;;;;;;5047341;28;20025;-40
2023/03/21 11:05:31;;;;;;;29.35;13.95;;;12.40;99.90;;;;;;5046594;28;20025;-40
2023/03/21 11:08:10;;;;;;;26.42;13.85;;;12.40;99.90;;;;;;5040058;28;20033;-40
2023/03/21 11:11:06;;;;;;;25.20;12.45;;;12.60;99.90;;;;;;5047715;28;20029;-41
2023/03/21 11:13:36;;;;;;;30.15;12.73;;;12.60;99.90;;;;;;5047334;28;20407;-40
2023/03/21 11:16:21;;;;;;;22.02;12.65;;;12.70;99.90;;;;;;5041883;28;20040;-40
2023/03/21 11:18:50;;;;;;;25.60;12.05;;;12.80;99.90;;;;;;5048088;28;20252;-41
2023/03/21 11:21:16;;;;;;;28.35;13.00;;;12.90;99.90;;;;;;5048170;28;20074;-40
2023/03/21 11:23:48;;;;;;;24.42;13.00;;;12.80;99.90;;;;;;5048061;28;20490;-40
2023/03/21 11:26:43;;;;;;;25.15;12.10;;;12.70;99.90;;;;;;5050983;28;20028;-40
2023/03/21 11:29:25;;;;;;;24.42;12.07;;;12.60;99.90;;;;;;5043773;28;20773;-40
2023/03/21 11:31:51;;;;;;;22.13;11.50;;;12.60;99.90;;;;;;5047875;28;20091;-39
2023/03/21 11:34:33;;;;;;;21.58;11.48;;;12.60;99.90;;;;;;5048123;28;20727;-39
2023/03/21 11:37:01;;;;;;;25.75;11.35;;;12.70;99.90;;;;;;5047996;28;20021;-41
2023/03/21 11:39:31;;;;;;;24.00;10.15;;;12.70;99.90;;;;;;5048186;28;20013;-40
2023/03/21 11:41:56;;;;;;;20.63;10.27;;;12.80;99.90;;;;;;5047850;28;20025;-41
2023/03/21 11:44:28;;;;;;;21.30;11.07;;;12.80;99.90;;;;;;5047651;28;20120;-41
2023/03/21 11:46:54;;;;;;;17.85;9.48;;;12.90;99.90;;;;;;5043688;28;20053;-40
2023/03/21 11:49:21;;;;;;;22.77;10.93;;;13.10;99.90;;;;;;5045935;28;20080;-41
2023/03/21 11:52:23;;;;;;;21.17;10.77;;;13.20;99.90;;;;;;5043695;28;20022;-40
2023/03/21 11:55:10;;;;;;;19.83;10.18;;;13.20;99.90;;;;;;4988986;28;20046;-41
2023/03/21 11:57:56;;;;;;;21.35;11.05;;;13.10;99.90;;;;;;5047759;28;20111;-40
2023/03/21 12:00:34;;;;;;;28.17;11.98;;;13.20;99.90;;;;;;5045710;28;20059;-41
2023/03/21 12:03:15;;;;;;;23.33;12.43;;;13.20;99.90;;;;;;5051356;28;20021;-40
2023/03/21 12:06:10;;;;;;;30.35;12.25;;;13.00;99.90;;;;;;5050606;28;20032;-44
2023/03/21 12:08:43;;;;;;;23.42;11.63;;;13.00;99.90;;;;;;5051340;28;20041;-45
2023/03/21 12:11:33;;;;;;;29.83;12.93;;;12.90;99.90;;;;;;5050694;28;20140;-45
2023/03/21 12:14:18;;;;;;;28.55;11.50;;;12.70;99.90;;;;;;5074556;28;20657;-45
2023/03/21 12:16:54;;;;;;;33.00;12.13;;;12.80;99.90;;;;;;5049058;28;20048;-47
2023/03/21 12:19:25;;;;;;;24.77;11.60;;;12.80;99.90;;;;;;5051394;28;20013;-45
2023/03/21 12:22:04;;;;;;;24.58;10.80;;;12.80;99.90;;;;;;5051025;28;20453;-40
2023/03/21 12:24:40;;;;;;;22.75;11.02;;;12.90;99.90;;;;;;5051407;28;20029;-40
2023/03/21 12:27:36;;;;;;;24.73;11.88;;;12.80;99.90;;;;;;5050241;28;20031;-40
2023/03/21 12:30:23;;;;;;;28.20;12.57;;;12.70;99.90;;;;;;5050736;28;20032;-40
2023/03/21 12:33:07;;;;;;;24.88;12.63;;;12.70;99.90;;;;;;5051133;28;20009;-41
2023/03/21 12:36:13;;;;;;;24.27;10.88;;;13.00;99.90;;;;;;5050491;28;20437;-45
2023/03/21 12:39:16;;;;;;;29.73;12.63;;;13.10;99.90;;;;;;5049914;28;20033;-46
2023/03/21 12:42:09;;;;;;;26.33;11.57;;;13.10;99.90;;;;;;5050368;28;20027;-45
2023/03/21 12:44:46;;;;;;;22.60;10.93;;;13.20;99.90;;;;;;5049130;28;20024;-45
2023/03/21 12:47:20;;;;;;;20.17;10.52;;;13.30;99.90;;;;;;5050024;28;20490;-45
2023/03/21 12:50:11;;;;;;;19.58;10.45;;;13.30;99.90;;;;;;5049006;28;20051;-45